createdAt,value
2019-01-21T00:01:30.878Z,1.80
2019-01-21T00:04:01.259Z,1.70
2019-01-21T00:06:31.660Z,1.60
2019-01-21T00:09:02.293Z,1.70
2019-01-21T00:11:33.918Z,1.70
2019-01-21T00:14:04.860Z,1.80
2019-01-21T00:16:35.312Z,1.60
2019-01-21T00:19:05.865Z,1.60
2019-01-21T00:21:36.592Z,1.70
2019-01-21T00:24:07.225Z,1.70
2019-01-21T00:26:38.409Z,1.70
2019-01-21T00:29:11.274Z,1.70
2019-01-21T00:31:42.065Z,1.70
2019-01-21T00:34:12.437Z,1.70
2019-01-21T00:36:43.289Z,1.70
2019-01-21T00:39:14.022Z,1.70
2019-01-21T00:41:44.916Z,1.60
2019-01-21T00:44:15.416Z,1.70
2019-01-21T00:46:46.265Z,1.70
2019-01-21T00:49:16.792Z,1.50
2019-01-21T00:51:47.664Z,1.70
2019-01-21T00:54:18.160Z,1.80
2019-01-21T00:56:48.691Z,1.80
2019-01-21T00:59:19.383Z,1.80
2019-01-21T01:01:50.359Z,1.80
2019-01-21T01:04:20.883Z,1.90
2019-01-21T01:06:52.324Z,1.90
2019-01-21T01:09:22.759Z,1.80
2019-01-21T01:11:53.705Z,1.80
2019-01-21T01:14:24.156Z,1.60
2019-01-21T01:16:54.791Z,1.60
2019-01-21T01:19:25.303Z,1.60
2019-01-21T01:21:56.064Z,1.50
2019-01-21T01:24:26.475Z,1.40
2019-01-21T01:27:00.167Z,1.50
2019-01-21T01:29:30.580Z,1.40
2019-01-21T01:32:01.157Z,1.50
2019-01-21T01:34:31.883Z,1.40
2019-01-21T01:37:02.557Z,1.40
2019-01-21T01:39:33.051Z,1.50
2019-01-21T01:42:03.796Z,1.50
2019-01-21T01:44:34.363Z,1.40
2019-01-21T01:47:07.992Z,1.40
2019-01-21T01:49:38.472Z,1.40
2019-01-21T01:52:09.189Z,1.50
2019-01-21T01:54:39.720Z,1.50
2019-01-21T01:57:14.260Z,1.50
2019-01-21T01:59:44.755Z,1.60
2019-01-21T02:02:16.360Z,1.70
2019-01-21T02:04:47.027Z,1.70
2019-01-21T02:07:17.713Z,1.70
2019-01-21T02:09:49.527Z,1.70
2019-01-21T02:12:20.167Z,1.70
2019-01-21T02:14:50.555Z,1.70
2019-01-21T02:17:21.336Z,1.70
2019-01-21T02:19:55.040Z,1.70
2019-01-21T02:22:28.204Z,1.80
2019-01-21T02:25:03.032Z,1.70
2019-01-21T02:28:07.671Z,1.80
2019-01-21T02:31:09.723Z,1.80
2019-01-21T02:34:10.124Z,1.80
2019-01-21T02:37:10.757Z,1.80
2019-01-21T02:39:52.712Z,1.80
2019-01-21T02:42:34.737Z,1.80
2019-01-21T02:45:43.358Z,1.80
2019-01-21T02:48:41.536Z,1.80
2019-01-21T02:51:48.464Z,1.80
2019-01-21T02:54:38.436Z,1.80
2019-01-21T02:57:48.134Z,1.80
2019-01-21T03:00:30.039Z,1.80
2019-01-21T03:04:02.183Z,1.80
2019-01-21T03:07:01.000Z,1.90
2019-01-21T03:09:52.300Z,1.80
2019-01-21T03:12:47.664Z,1.80
2019-01-21T03:16:01.478Z,1.70
2019-01-21T03:19:08.780Z,1.60
2019-01-21T03:22:14.584Z,1.50
2019-01-21T03:25:20.771Z,1.50
2019-01-21T03:28:44.284Z,1.40
2019-01-21T03:32:06.449Z,1.40
2019-01-21T03:35:13.004Z,1.70
2019-01-21T03:38:25.882Z,1.90
2019-01-21T03:41:05.872Z,1.90
2019-01-21T03:44:21.296Z,1.90
2019-01-21T03:47:31.320Z,2.00
2019-01-21T03:50:38.717Z,2.30
2019-01-21T03:53:32.367Z,2.50
2019-01-21T03:56:08.269Z,2.60
2019-01-21T03:59:15.364Z,2.70
2019-01-21T04:02:39.770Z,3.00
2019-01-21T04:05:41.040Z,3.00
2019-01-21T04:08:33.537Z,3.10
2019-01-21T04:11:51.331Z,3.20
2019-01-21T04:14:55.056Z,3.20
2019-01-21T04:18:01.315Z,3.20
2019-01-21T04:20:57.808Z,3.30
2019-01-21T04:23:55.298Z,3.30
2019-01-21T04:27:01.808Z,3.30
2019-01-21T04:29:48.529Z,3.30
2019-01-21T04:32:37.199Z,3.30
2019-01-21T04:35:48.676Z,3.40
2019-01-21T04:38:51.546Z,3.50
2019-01-21T04:42:00.682Z,3.40
2019-01-21T04:44:59.738Z,3.50
2019-01-21T04:47:52.352Z,3.60
2019-01-21T04:51:06.736Z,3.50
2019-01-21T04:54:03.796Z,3.60
2019-01-21T04:57:03.101Z,3.60
2019-01-21T05:00:10.304Z,3.60
2019-01-21T05:03:24.104Z,3.50
2019-01-21T05:06:06.571Z,3.60
2019-01-21T05:09:05.274Z,3.70
2019-01-21T05:12:19.886Z,3.70
2019-01-21T05:15:36.172Z,3.80
2019-01-21T05:18:58.367Z,3.80
2019-01-21T05:21:52.667Z,3.80
2019-01-21T05:24:57.723Z,3.70
2019-01-21T05:28:16.558Z,3.80
2019-01-21T05:31:13.845Z,3.60
2019-01-21T05:34:29.192Z,3.60
2019-01-21T05:37:37.266Z,3.70
2019-01-21T05:40:41.729Z,3.60
2019-01-21T05:43:58.996Z,3.60
2019-01-21T05:47:01.272Z,3.70
2019-01-21T05:50:25.578Z,3.80
2019-01-21T05:53:41.269Z,3.70
2019-01-21T05:57:04.747Z,3.60
2019-01-21T06:00:14.649Z,3.70
2019-01-21T06:03:00.291Z,3.50
2019-01-21T06:06:11.561Z,3.60
2019-01-21T06:08:56.612Z,3.50
2019-01-21T06:11:55.972Z,3.40
2019-01-21T06:14:44.215Z,3.40
2019-01-21T06:17:41.184Z,3.30
2019-01-21T06:20:54.772Z,3.20
2019-01-21T06:24:00.249Z,3.20
2019-01-21T06:27:16.833Z,3.10
2019-01-21T06:30:11.495Z,3.10
2019-01-21T06:33:18.703Z,3.00
2019-01-21T06:36:30.272Z,3.00
2019-01-21T06:39:30.532Z,3.10
2019-01-21T06:42:22.659Z,3.00
2019-01-21T06:45:39.574Z,2.90
2019-01-21T06:48:38.624Z,2.70
2019-01-21T06:51:47.581Z,2.80
2019-01-21T06:54:47.597Z,2.60
2019-01-21T06:58:08.453Z,2.60
2019-01-21T07:01:28.787Z,2.60
2019-01-21T07:04:49.128Z,2.50
2019-01-21T07:08:06.305Z,2.60
2019-01-21T07:11:13.584Z,2.60
2019-01-21T07:14:00.684Z,2.60
2019-01-21T07:16:52.436Z,2.60
2019-01-21T07:20:00.379Z,2.60
2019-01-21T07:23:10.713Z,2.50
2019-01-21T07:26:09.528Z,2.50
2019-01-21T07:29:25.264Z,2.50
2019-01-21T07:32:17.952Z,2.40
2019-01-21T07:35:24.931Z,2.50
2019-01-21T07:38:14.116Z,2.30
2019-01-21T07:41:24.664Z,2.30
2019-01-21T07:44:16.380Z,2.30
2019-01-21T07:47:35.396Z,2.40
2019-01-21T07:50:36.432Z,2.40
2019-01-21T07:53:49.514Z,2.40
2019-01-21T07:57:01.354Z,2.50
2019-01-21T08:00:23.285Z,2.50
2019-01-21T08:03:40.588Z,2.50
2019-01-21T08:06:37.461Z,2.60
2019-01-21T08:09:34.500Z,2.70
2019-01-21T08:12:44.488Z,2.60
2019-01-21T08:15:36.207Z,2.50
2019-01-21T08:18:52.444Z,2.30
2019-01-21T08:21:35.786Z,2.40
2019-01-21T08:24:50.501Z,2.20
2019-01-21T08:27:58.984Z,2.40
2019-01-21T08:30:45.184Z,2.40
2019-01-21T08:34:02.768Z,2.50
2019-01-21T08:36:48.840Z,2.50
2019-01-21T08:39:43.018Z,2.50
2019-01-21T08:42:45.136Z,2.50
2019-01-21T08:45:41.272Z,2.60
2019-01-21T08:48:48.272Z,2.70
2019-01-21T08:51:45.731Z,2.90
2019-01-21T08:54:59.012Z,2.90
2019-01-21T08:57:57.413Z,2.80
2019-01-21T09:01:29.936Z,2.80
2019-01-21T09:04:44.056Z,2.90
2019-01-21T09:07:45.752Z,3.00
2019-01-21T09:11:02.708Z,3.00
2019-01-21T09:14:03.068Z,3.00
2019-01-21T09:17:15.674Z,3.00
2019-01-21T09:20:10.847Z,3.10
2019-01-21T09:22:46.943Z,3.20
2019-01-21T09:25:49.672Z,3.30
2019-01-21T09:28:59.060Z,3.30
2019-01-21T09:32:02.513Z,3.20
2019-01-21T09:35:08.393Z,3.10
2019-01-21T09:37:53.550Z,3.10
2019-01-21T09:40:50.921Z,3.20
2019-01-21T09:43:39.716Z,3.30
2019-01-21T09:46:50.579Z,3.30
2019-01-21T09:49:19.551Z,3.30
2019-01-21T09:52:07.713Z,3.40
2019-01-21T09:54:39.915Z,3.40
2019-01-21T09:57:29.334Z,3.50
2019-01-21T10:00:01.690Z,3.60
2019-01-21T10:02:42.878Z,3.60
2019-01-21T10:05:18.311Z,3.60
2019-01-21T10:08:06.820Z,3.60
2019-01-21T10:11:11.784Z,3.70
2019-01-21T10:14:04.629Z,3.70
2019-01-21T10:17:11.721Z,3.70
2019-01-21T10:20:35.457Z,3.80
2019-01-21T10:23:39.313Z,3.90
2019-01-21T10:26:49.260Z,3.90
2019-01-21T10:29:45.874Z,4.00
2019-01-21T10:33:04.931Z,3.90
2019-01-21T10:36:06.590Z,3.90
2019-01-21T10:39:10.812Z,3.90
2019-01-21T10:42:09.204Z,4.10
2019-01-21T10:45:32.464Z,4.00
2019-01-21T10:48:13.203Z,4.10
2019-01-21T10:51:09.872Z,4.00
2019-01-21T10:54:05.797Z,4.00
2019-01-21T10:57:19.684Z,4.00
2019-01-21T11:00:15.866Z,4.10
2019-01-21T11:03:16.879Z,4.10
2019-01-21T11:06:29.801Z,4.20
2019-01-21T11:09:26.718Z,4.20
2019-01-21T11:12:24.600Z,4.10
2019-01-21T11:15:28.812Z,4.10
2019-01-21T11:18:10.387Z,4.20
2019-01-21T11:21:32.779Z,4.30
2019-01-21T11:24:28.548Z,4.30
2019-01-21T11:27:33.616Z,4.30
2019-01-21T11:30:44.036Z,4.10
2019-01-21T11:33:41.497Z,4.10
2019-01-21T11:36:52.100Z,4.10
2019-01-21T11:39:53.791Z,3.90
2019-01-21T11:42:44.540Z,3.80
2019-01-21T11:45:58.695Z,4.00
2019-01-21T11:49:15.412Z,4.00
2019-01-21T11:52:17.663Z,4.00
2019-01-21T11:55:24.128Z,4.10
2019-01-21T11:58:37.164Z,4.10
2019-01-21T12:01:38.171Z,4.20
2019-01-21T12:04:24.144Z,4.30
2019-01-21T12:07:11.057Z,4.40
2019-01-21T12:10:46.508Z,4.40
2019-01-21T12:14:18.812Z,4.40
2019-01-21T12:17:12.468Z,4.40
2019-01-21T12:20:17.217Z,4.40
2019-01-21T12:23:30.988Z,4.40
2019-01-21T12:26:43.253Z,4.30
2019-01-21T12:29:52.745Z,4.40
2019-01-21T12:33:05.604Z,4.40
2019-01-21T12:36:14.032Z,4.30
2019-01-21T12:39:43.580Z,4.30
2019-01-21T12:42:53.928Z,4.40
2019-01-21T12:45:58.241Z,4.40
2019-01-21T12:49:18.644Z,4.30
2019-01-21T12:52:09.605Z,4.30
2019-01-21T12:55:13.797Z,4.30
2019-01-21T12:58:27.748Z,4.40
2019-01-21T13:01:18.151Z,4.30
2019-01-21T13:04:19.625Z,4.40
2019-01-21T13:07:49.108Z,4.30
2019-01-21T13:10:57.060Z,4.30
2019-01-21T13:13:54.209Z,4.30
2019-01-21T13:17:10.128Z,4.30
2019-01-21T13:20:15.977Z,4.40
2019-01-21T13:23:07.824Z,4.40
2019-01-21T13:26:06.896Z,4.20
2019-01-21T13:28:45.981Z,4.20
2019-01-21T13:32:06.995Z,4.20
2019-01-21T13:34:55.496Z,4.30
2019-01-21T13:37:55.441Z,4.30
2019-01-21T13:41:21.660Z,4.40
2019-01-21T13:44:30.808Z,4.50
2019-01-21T13:48:06.188Z,4.40
2019-01-21T13:51:20.711Z,4.30
2019-01-21T13:54:42.712Z,4.30
2019-01-21T13:57:44.866Z,4.20
2019-01-21T14:00:44.912Z,4.30
2019-01-21T14:03:44.724Z,4.30
2019-01-21T14:06:48.119Z,4.10
2019-01-21T14:10:11.476Z,4.00
2019-01-21T14:13:27.679Z,4.00
2019-01-21T14:16:38.715Z,4.00
2019-01-21T14:19:25.194Z,3.80
2019-01-21T14:22:30.624Z,3.90
2019-01-21T14:25:48.285Z,3.90
2019-01-21T14:28:44.669Z,4.00
2019-01-21T14:31:46.469Z,3.90
2019-01-21T14:34:52.560Z,3.70
2019-01-21T14:38:02.995Z,3.60
2019-01-21T14:40:51.208Z,3.60
2019-01-21T14:44:10.060Z,3.60
2019-01-21T14:47:06.425Z,3.50
2019-01-21T14:50:11.760Z,3.50
2019-01-21T14:53:13.185Z,3.50
2019-01-21T14:56:11.651Z,3.60
2019-01-21T14:59:28.730Z,3.50
2019-01-21T15:02:35.668Z,3.50
2019-01-21T15:05:49.768Z,3.30
2019-01-21T15:08:40.805Z,3.40
2019-01-21T15:11:38.372Z,3.40
2019-01-21T15:14:24.293Z,3.30
2019-01-21T15:17:30.280Z,3.30
2019-01-21T15:20:36.120Z,3.40
2019-01-21T15:23:56.296Z,3.50
2019-01-21T15:26:55.969Z,3.50
2019-01-21T15:30:09.909Z,3.50
2019-01-21T15:33:24.164Z,3.50
2019-01-21T15:36:19.581Z,3.50
2019-01-21T15:39:29.060Z,3.50
2019-01-21T15:42:31.356Z,3.50
2019-01-21T15:45:32.445Z,3.40
2019-01-21T15:48:51.676Z,3.30
2019-01-21T15:52:11.744Z,3.20
2019-01-21T15:55:12.408Z,3.30
2019-01-21T15:58:30.388Z,3.20
2019-01-21T16:01:42.202Z,3.30
2019-01-21T16:04:23.554Z,3.40
2019-01-21T16:07:13.338Z,3.40
2019-01-21T16:09:59.335Z,3.30
2019-01-21T16:13:31.818Z,3.30
2019-01-21T16:16:39.178Z,3.30
2019-01-21T16:19:21.070Z,3.30
2019-01-21T16:22:56.819Z,3.20
2019-01-21T16:25:57.069Z,3.10
2019-01-21T16:28:36.706Z,3.20
2019-01-21T16:31:31.004Z,3.30
2019-01-21T16:34:38.532Z,3.40
2019-01-21T16:37:33.755Z,3.40
2019-01-21T16:40:43.727Z,3.40
2019-01-21T16:43:14.177Z,3.40
2019-01-21T16:45:44.573Z,3.20
2019-01-21T16:48:15.051Z,3.20
2019-01-21T16:50:45.824Z,3.10
2019-01-21T16:53:16.327Z,3.10
2019-01-21T16:55:46.698Z,3.10
2019-01-21T16:58:17.262Z,3.10
2019-01-21T17:00:47.680Z,3.00
2019-01-21T17:03:18.513Z,3.10
2019-01-21T17:05:49.215Z,3.20
2019-01-21T17:08:19.947Z,3.30
2019-01-21T17:10:50.303Z,3.30
2019-01-21T17:13:20.630Z,3.40
2019-01-21T17:15:51.248Z,3.40
2019-01-21T17:18:22.628Z,3.40
2019-01-21T17:20:53.296Z,3.30
2019-01-21T17:23:23.971Z,3.30
2019-01-21T17:25:54.685Z,3.30
2019-01-21T17:28:25.155Z,3.30
2019-01-21T17:30:55.698Z,3.30
2019-01-21T17:33:26.072Z,3.40
2019-01-21T17:35:56.735Z,3.30
2019-01-21T17:38:27.397Z,3.20
2019-01-21T17:40:57.719Z,3.30
2019-01-21T17:43:28.200Z,3.30
2019-01-21T17:45:58.727Z,3.30
2019-01-21T17:48:29.839Z,3.20
2019-01-21T17:51:00.422Z,3.20
2019-01-21T17:53:31.424Z,3.30
2019-01-21T17:56:02.095Z,3.30
2019-01-21T17:58:32.669Z,3.30
2019-01-21T18:01:03.241Z,3.30
2019-01-21T18:03:34.835Z,3.30
2019-01-21T18:06:05.644Z,3.30
2019-01-21T18:08:36.533Z,3.20
2019-01-21T18:11:06.932Z,3.30
2019-01-21T18:13:37.606Z,3.20
2019-01-21T18:16:08.107Z,3.20
2019-01-21T18:18:38.798Z,3.20
2019-01-21T18:21:09.184Z,3.30
2019-01-21T18:23:40.061Z,3.30
2019-01-21T18:26:10.527Z,3.30
2019-01-21T18:28:41.100Z,3.30
2019-01-21T18:31:12.200Z,3.30
2019-01-21T18:33:42.852Z,3.30
2019-01-21T18:36:15.577Z,3.30
2019-01-21T18:39:09.692Z,3.30
2019-01-21T18:41:40.025Z,3.30
2019-01-21T18:44:10.399Z,3.20
2019-01-21T18:46:40.968Z,3.10
2019-01-21T18:49:11.392Z,3.20
2019-01-21T18:51:46.680Z,3.10
2019-01-21T18:54:15.177Z,3.10
2019-01-21T18:56:49.338Z,3.10
2019-01-21T18:59:19.996Z,3.10
2019-01-21T19:01:50.492Z,3.20
2019-01-21T19:04:21.392Z,3.30
2019-01-21T19:06:51.828Z,3.30
2019-01-21T19:09:23.799Z,3.20
2019-01-21T19:11:54.557Z,3.20
2019-01-21T19:14:28.666Z,3.10
2019-01-21T19:17:00.148Z,3.10
2019-01-21T19:19:30.866Z,3.20
2019-01-21T19:22:01.566Z,3.20
2019-01-21T19:24:32.396Z,3.20
2019-01-21T19:27:02.963Z,3.20
2019-01-21T19:29:33.652Z,3.20
2019-01-21T19:32:04.243Z,3.20
2019-01-21T19:34:34.936Z,3.20
2019-01-21T19:37:05.904Z,3.20
2019-01-21T19:39:37.087Z,3.30
2019-01-21T19:42:10.061Z,3.30
2019-01-21T19:44:42.549Z,3.30
2019-01-21T19:47:15.112Z,3.30
2019-01-21T19:49:46.677Z,3.30
2019-01-21T19:52:17.206Z,3.30
2019-01-21T19:54:48.049Z,3.30
2019-01-21T19:57:18.724Z,3.40
2019-01-21T19:59:49.492Z,3.50
2019-01-21T20:02:21.708Z,3.60
2019-01-21T20:04:52.496Z,3.50
2019-01-21T20:07:22.896Z,3.50
2019-01-21T20:09:53.691Z,3.50
2019-01-21T20:12:24.104Z,3.60
2019-01-21T20:14:54.666Z,3.50
2019-01-21T20:17:25.189Z,3.50
2019-01-21T20:19:55.878Z,3.50
2019-01-21T20:22:26.829Z,3.50
2019-01-21T20:24:57.396Z,3.40
2019-01-21T20:27:27.920Z,3.40
2019-01-21T20:29:58.344Z,3.40
2019-01-21T20:32:28.682Z,3.40
2019-01-21T20:34:59.343Z,3.50
2019-01-21T20:37:29.693Z,3.50
2019-01-21T20:40:00.174Z,3.40
2019-01-21T20:42:30.620Z,3.40
2019-01-21T20:45:01.181Z,3.30
2019-01-21T20:47:31.686Z,3.20
2019-01-21T20:50:02.309Z,3.20
2019-01-21T20:52:32.892Z,3.20
2019-01-21T20:55:05.384Z,3.20
2019-01-21T20:57:36.008Z,3.10
2019-01-21T21:00:08.771Z,3.10
2019-01-21T21:02:40.801Z,3.10
2019-01-21T21:05:11.991Z,3.10
2019-01-21T21:07:42.414Z,3.20
2019-01-21T21:10:13.753Z,3.10
2019-01-21T21:12:44.443Z,3.10
2019-01-21T21:15:20.256Z,3.20
2019-01-21T21:17:50.791Z,3.20
2019-01-21T21:20:21.705Z,3.30
2019-01-21T21:22:52.336Z,3.40
2019-01-21T21:25:23.580Z,3.30
2019-01-21T21:27:54.002Z,3.40
2019-01-21T21:30:29.883Z,3.30
2019-01-21T21:33:00.409Z,3.30
2019-01-21T21:35:31.312Z,3.30
2019-01-21T21:38:01.756Z,3.30
2019-01-21T21:40:32.416Z,3.30
2019-01-21T21:43:02.944Z,3.20
2019-01-21T21:45:33.644Z,3.30
2019-01-21T21:48:04.255Z,3.30
2019-01-21T21:50:34.804Z,3.10
2019-01-21T21:53:05.496Z,3.10
2019-01-21T21:55:36.448Z,3.20
2019-01-21T21:58:07.436Z,3.30
2019-01-21T22:00:37.991Z,3.30
2019-01-21T22:03:08.496Z,3.20
2019-01-21T22:05:39.152Z,3.20
2019-01-21T22:08:09.584Z,3.30
2019-01-21T22:10:40.644Z,3.30
2019-01-21T22:13:11.260Z,3.30
2019-01-21T22:15:41.716Z,3.40
2019-01-21T22:18:12.286Z,3.40
2019-01-21T22:20:42.901Z,3.40
2019-01-21T22:23:13.724Z,3.40
2019-01-21T22:25:44.813Z,3.30
2019-01-21T22:28:15.656Z,3.30
2019-01-21T22:30:46.299Z,3.40
2019-01-21T22:33:17.581Z,3.40
2019-01-21T22:35:48.406Z,3.50
2019-01-21T22:38:21.696Z,3.50
2019-01-21T22:40:52.365Z,3.60
2019-01-21T22:44:09.395Z,3.60
2019-01-21T22:46:00.991Z,3.60
2019-01-21T22:48:31.556Z,3.60
2019-01-21T22:51:01.814Z,3.40
2019-01-21T22:53:32.460Z,3.30
2019-01-21T22:56:02.829Z,3.30
2019-01-21T22:58:33.529Z,3.30
2019-01-21T23:01:23.615Z,3.40
2019-01-21T23:03:54.296Z,3.40
2019-01-21T23:06:24.604Z,3.40
2019-01-21T23:08:55.297Z,3.40
2019-01-21T23:11:25.904Z,3.40
2019-01-21T23:13:56.545Z,3.40
2019-01-21T23:16:26.968Z,3.40
2019-01-21T23:18:57.287Z,3.40
2019-01-21T23:21:27.708Z,3.50
2019-01-21T23:23:58.024Z,3.50
2019-01-21T23:26:28.540Z,3.50
2019-01-21T23:28:59.188Z,3.30
2019-01-21T23:31:29.526Z,3.50
2019-01-21T23:33:59.964Z,3.40
2019-01-21T23:36:30.293Z,3.30
2019-01-21T23:39:01.161Z,3.30
2019-01-21T23:41:32.943Z,3.20
2019-01-21T23:44:03.485Z,3.30
2019-01-21T23:46:33.893Z,3.30
2019-01-21T23:49:04.380Z,3.30
2019-01-21T23:51:35.011Z,3.30
2019-01-21T23:54:05.580Z,3.30
2019-01-21T23:56:36.184Z,3.20
2019-01-21T23:59:06.884Z,3.20
